F/V Lycia — FO3848 — position and weather

sailwx.info

Track history (hours):
 
Tides and Currents Weather Stations Pressure Air Temp Water Temp Dewpoint Dewpoint Depression Visibility Wind Speed Wind Dir Waves Ship Positions

F/V Lycia

Last reported at 2017-Nov-20 00:00 UTC. Time now 2017-Nov-20 00:20 UTC.
Position N 48°06' W 004°19'.

Length 10 m.

Type: Fishing. MMSI: 228208800.

Date/timePositionNaut miles runAvg speedWind from/ knotsBaromVisibWave heightAir tempDewpointWater temp
2017-Nov-20 00:00N 48°06' W 004°19'0 0.0
2017-Nov-19 23:30N 48°06' W 004°19'0 0.0
2017-Nov-19 23:00N 48°06' W 004°19'0 0.0
2017-Nov-19 22:30N 48°06' W 004°19'0 0.1
2017-Nov-19 22:00N 48°06' W 004°20'0 0.1
2017-Nov-19 21:30N 48°06' W 004°20'2 5.0
2017-Nov-19 21:01N 48°08' W 004°19'3 6.0
2017-Nov-19 20:31N 48°10' W 004°23'5 9.0
2017-Nov-19 20:00N 48°11' W 004°29'1 2.2
2017-Nov-19 19:30N 48°12' W 004°29'2 4.8
2017-Nov-19 19:01N 48°12' W 004°26'0 0.1
2017-Nov-19 18:31N 48°12' W 004°26'2 3.5
2017-Nov-19 18:00N 48°11' W 004°23'2 3.9
2017-Nov-19 17:31N 48°11' W 004°21'0 0.2
2017-Nov-19 17:01N 48°11' W 004°21'2 3.4
2017-Nov-19 16:30N 48°09' W 004°19'2 3.4
2017-Nov-19 16:00N 48°08' W 004°20'2 3.5
2017-Nov-19 15:30N 48°06' W 004°19'  
2017-Nov-17 00:14N 48°06' W 004°19'0 0.0
2017-Nov-17 00:00N 48°06' W 004°19'0 0.0
2017-Nov-16 23:31N 48°06' W 004°19'0 0.1
2017-Nov-16 23:00N 48°06' W 004°19'0 0.0
2017-Nov-16 22:30N 48°06' W 004°19'0 0.0
2017-Nov-16 22:00N 48°06' W 004°19'0 0.2
2017-Nov-16 21:29N 48°06' W 004°20'2 4.3
2017-Nov-16 21:00N 48°08' W 004°21'4 8.3
2017-Nov-16 20:30N 48°11' W 004°24'0 0.9
2017-Nov-16 20:00N 48°11' W 004°25'0 0.2
2017-Nov-16 19:30N 48°11' W 004°25'0 0.2
2017-Nov-16 19:00N 48°12' W 004°25'0 0.2
2017-Nov-16 18:30N 48°12' W 004°25'1 2.5
2017-Nov-16 18:01N 48°12' W 004°23'1 2.6
2017-Nov-16 17:30N 48°10' W 004°23'0 0.3
2017-Nov-16 17:01N 48°10' W 004°23'1 2.8
2017-Nov-16 16:30N 48°09' W 004°24'4 7.7
2017-Nov-16 16:00N 48°06' W 004°20'1 0.1
2017-Nov-16 09:11N 48°06' W 004°20'0 0.0
2017-Nov-16 08:59N 48°06' W 004°20'0 0.0
2017-Nov-15 22:15N 48°06' W 004°20'0 0.3
2017-Nov-15 22:00N 48°06' W 004°20'0 0.0
2017-Nov-15 21:30N 48°06' W 004°20'0 0.0
2017-Nov-15 21:00N 48°06' W 004°20'0 0.0
2017-Nov-15 20:30N 48°06' W 004°20'3 6.4
2017-Nov-15 20:01N 48°07' W 004°24'3 5.5
2017-Nov-15 19:30N 48°07' W 004°28'0 0.3
2017-Nov-15 19:01N 48°06' W 004°28'2 3.7
2017-Nov-15 18:30N 48°06' W 004°31'0 0.3
2017-Nov-15 18:00N 48°06' W 004°31'3 6.4
2017-Nov-15 17:30N 48°09' W 004°30'1 2.8
2017-Nov-15 17:01N 48°09' W 004°28'1 2.8
2017-Nov-15 16:30N 48°08' W 004°26'5 9.7
2017-Nov-15 16:00N 48°06' W 004°19'0 0.3
2017-Nov-15 15:30N 48°06' W 004°19'0 0.0
2017-Nov-15 15:00N 48°06' W 004°19'0 0.0
2017-Nov-15 00:27N 48°06' W 004°19'0 0.0
2017-Nov-15 00:00N 48°06' W 004°19'0 0.0
2017-Nov-14 23:30N 48°06' W 004°19'0 0.0
2017-Nov-14 23:00N 48°06' W 004°19'0 0.0
2017-Nov-14 22:30N 48°06' W 004°19'0 0.3
2017-Nov-14 22:01N 48°06' W 004°19'5 9.4
2017-Nov-14 21:31N 48°10' W 004°23'2 3.6
2017-Nov-14 21:00N 48°11' W 004°25'0 0.1
2017-Nov-14 20:30N 48°11' W 004°25'0 0.9
2017-Nov-14 20:01N 48°11' W 004°26'4 8.1
2017-Nov-14 19:30N 48°07' W 004°24'1 2.0
2017-Nov-14 19:00N 48°08' W 004°23'0 0.7
2017-Nov-14 18:31N 48°07' W 004°23'1 2.7
2017-Nov-14 18:00N 48°07' W 004°25'1 1.0
2017-Nov-14 17:30N 48°08' W 004°26'0 0.1
2017-Nov-14 17:01N 48°08' W 004°25'2 3.0
2017-Nov-14 16:30N 48°08' W 004°23'3 6.1
2017-Nov-14 16:00N 48°06' W 004°20'4 7.9
2017-Nov-14 15:30N 48°07' W 004°25'5 9.1
2017-Nov-14 15:00N 48°06' W 004°32'5 9.5
2017-Nov-14 14:30N 48°05' W 004°39'4 8.2
2017-Nov-14 14:00N 48°04' W 004°45'3 6.2
2017-Nov-14 13:29N 48°01' W 004°43'4 8.7
2017-Nov-14 13:00N 47°58' W 004°39'5 9.3
2017-Nov-14 12:30N 47°54' W 004°34'5 9.5
2017-Nov-14 11:58N 47°51' W 004°29'6 9.4
2017-Nov-14 11:22N 47°47' W 004°23'19 1.4
2017-Nov-13 21:53N 47°52' W 003°56'24 1.0
2017-Nov-12 21:59N 47°44' W 003°22'0 0.0
2017-Nov-12 21:30N 47°44' W 003°22'0 0.3
2017-Nov-12 21:00N 47°44' W 003°22'1 2.5
2017-Nov-12 20:30N 47°42' W 003°22'4 7.7
2017-Nov-12 20:00N 47°39' W 003°26'1 1.0
2017-Nov-12 19:30N 47°40' W 003°26'1 1.5
2017-Nov-12 19:00N 47°40' W 003°26'1 1.1
2017-Nov-12 18:30N 47°41' W 003°27'1 2.4
2017-Nov-12 18:00N 47°41' W 003°25'4 8.7
2017-Nov-12 17:30N 47°40' W 003°19'1 2.3
2017-Nov-12 17:00N 47°39' W 003°20'4 8.4
2017-Nov-12 16:30N 47°41' W 003°25'4 7.5
2017-Nov-12 16:00N 47°44' W 003°22'0 0.4
2017-Nov-12 15:30N 47°44' W 003°22'  
Track history (hours):
 
Tides and Currents Weather Stations Pressure Air Temp Water Temp Dewpoint Dewpoint Depression Visibility Wind Speed Wind Dir Waves Ship Positions

F/V Lycia

Last reported at 2017-Nov-20 00:00 UTC. Time now 2017-Nov-20 00:20 UTC.
Position N 48°06' W 004°19'.

Length 10 m.

Type: Fishing. MMSI: 228208800.

Date/timePositionNaut miles runAvg speedWind from/ knotsBaromVisibWave heightAir tempDewpointWater temp
2017-Nov-20 00:00N 48°06' W 004°19'0 0.0
2017-Nov-19 23:30N 48°06' W 004°19'0 0.0
2017-Nov-19 23:00N 48°06' W 004°19'0 0.0
2017-Nov-19 22:30N 48°06' W 004°19'0 0.1
2017-Nov-19 22:00N 48°06' W 004°20'0 0.1
2017-Nov-19 21:30N 48°06' W 004°20'2 5.0
2017-Nov-19 21:01N 48°08' W 004°19'3 6.0
2017-Nov-19 20:31N 48°10' W 004°23'5 9.0
2017-Nov-19 20:00N 48°11' W 004°29'1 2.2
2017-Nov-19 19:30N 48°12' W 004°29'2 4.8
2017-Nov-19 19:01N 48°12' W 004°26'0 0.1
2017-Nov-19 18:31N 48°12' W 004°26'2 3.5
2017-Nov-19 18:00N 48°11' W 004°23'2 3.9
2017-Nov-19 17:31N 48°11' W 004°21'0 0.2
2017-Nov-19 17:01N 48°11' W 004°21'2 3.4
2017-Nov-19 16:30N 48°09' W 004°19'2 3.4
2017-Nov-19 16:00N 48°08' W 004°20'2 3.5
2017-Nov-19 15:30N 48°06' W 004°19'  
2017-Nov-17 00:14N 48°06' W 004°19'0 0.0
2017-Nov-17 00:00N 48°06' W 004°19'0 0.0
2017-Nov-16 23:31N 48°06' W 004°19'0 0.1
2017-Nov-16 23:00N 48°06' W 004°19'0 0.0
2017-Nov-16 22:30N 48°06' W 004°19'0 0.0
2017-Nov-16 22:00N 48°06' W 004°19'0 0.2
2017-Nov-16 21:29N 48°06' W 004°20'2 4.3
2017-Nov-16 21:00N 48°08' W 004°21'4 8.3
2017-Nov-16 20:30N 48°11' W 004°24'0 0.9
2017-Nov-16 20:00N 48°11' W 004°25'0 0.2
2017-Nov-16 19:30N 48°11' W 004°25'0 0.2
2017-Nov-16 19:00N 48°12' W 004°25'0 0.2
2017-Nov-16 18:30N 48°12' W 004°25'1 2.5
2017-Nov-16 18:01N 48°12' W 004°23'1 2.6
2017-Nov-16 17:30N 48°10' W 004°23'0 0.3
2017-Nov-16 17:01N 48°10' W 004°23'1 2.8
2017-Nov-16 16:30N 48°09' W 004°24'4 7.7
2017-Nov-16 16:00N 48°06' W 004°20'1 0.1
2017-Nov-16 09:11N 48°06' W 004°20'0 0.0
2017-Nov-16 08:59N 48°06' W 004°20'0 0.0
2017-Nov-15 22:15N 48°06' W 004°20'0 0.3
2017-Nov-15 22:00N 48°06' W 004°20'0 0.0
2017-Nov-15 21:30N 48°06' W 004°20'0 0.0
2017-Nov-15 21:00N 48°06' W 004°20'0 0.0
2017-Nov-15 20:30N 48°06' W 004°20'3 6.4
2017-Nov-15 20:01N 48°07' W 004°24'3 5.5
2017-Nov-15 19:30N 48°07' W 004°28'0 0.3
2017-Nov-15 19:01N 48°06' W 004°28'2 3.7
2017-Nov-15 18:30N 48°06' W 004°31'0 0.3
2017-Nov-15 18:00N 48°06' W 004°31'3 6.4
2017-Nov-15 17:30N 48°09' W 004°30'1 2.8
2017-Nov-15 17:01N 48°09' W 004°28'1 2.8
2017-Nov-15 16:30N 48°08' W 004°26'5 9.7
2017-Nov-15 16:00N 48°06' W 004°19'0 0.3
2017-Nov-15 15:30N 48°06' W 004°19'0 0.0
2017-Nov-15 15:00N 48°06' W 004°19'0 0.0
2017-Nov-15 00:27N 48°06' W 004°19'0 0.0
2017-Nov-15 00:00N 48°06' W 004°19'0 0.0
2017-Nov-14 23:30N 48°06' W 004°19'0 0.0
2017-Nov-14 23:00N 48°06' W 004°19'0 0.0
2017-Nov-14 22:30N 48°06' W 004°19'0 0.3
2017-Nov-14 22:01N 48°06' W 004°19'5 9.4
2017-Nov-14 21:31N 48°10' W 004°23'2 3.6
2017-Nov-14 21:00N 48°11' W 004°25'0 0.1
2017-Nov-14 20:30N 48°11' W 004°25'0 0.9
2017-Nov-14 20:01N 48°11' W 004°26'4 8.1
2017-Nov-14 19:30N 48°07' W 004°24'1 2.0
2017-Nov-14 19:00N 48°08' W 004°23'0 0.7
2017-Nov-14 18:31N 48°07' W 004°23'1 2.7
2017-Nov-14 18:00N 48°07' W 004°25'1 1.0
2017-Nov-14 17:30N 48°08' W 004°26'0 0.1
2017-Nov-14 17:01N 48°08' W 004°25'2 3.0
2017-Nov-14 16:30N 48°08' W 004°23'3 6.1
2017-Nov-14 16:00N 48°06' W 004°20'4 7.9
2017-Nov-14 15:30N 48°07' W 004°25'5 9.1
2017-Nov-14 15:00N 48°06' W 004°32'5 9.5
2017-Nov-14 14:30N 48°05' W 004°39'4 8.2
2017-Nov-14 14:00N 48°04' W 004°45'3 6.2
2017-Nov-14 13:29N 48°01' W 004°43'4 8.7
2017-Nov-14 13:00N 47°58' W 004°39'5 9.3
2017-Nov-14 12:30N 47°54' W 004°34'5 9.5
2017-Nov-14 11:58N 47°51' W 004°29'6 9.4
2017-Nov-14 11:22N 47°47' W 004°23'19 1.4
2017-Nov-13 21:53N 47°52' W 003°56'24 1.0
2017-Nov-12 21:59N 47°44' W 003°22'0 0.0
2017-Nov-12 21:30N 47°44' W 003°22'0 0.3
2017-Nov-12 21:00N 47°44' W 003°22'1 2.5
2017-Nov-12 20:30N 47°42' W 003°22'4 7.7
2017-Nov-12 20:00N 47°39' W 003°26'1 1.0
2017-Nov-12 19:30N 47°40' W 003°26'1 1.5
2017-Nov-12 19:00N 47°40' W 003°26'1 1.1
2017-Nov-12 18:30N 47°41' W 003°27'1 2.4
2017-Nov-12 18:00N 47°41' W 003°25'4 8.7
2017-Nov-12 17:30N 47°40' W 003°19'1 2.3
2017-Nov-12 17:00N 47°39' W 003°20'4 8.4
2017-Nov-12 16:30N 47°41' W 003°25'4 7.5
2017-Nov-12 16:00N 47°44' W 003°22'0 0.4
2017-Nov-12 15:30N 47°44' W 003°22'  

Dump ship's entire track history